createdAt,value
2023-04-02T00:01:43.951Z,9.75
2023-04-02T00:05:31.763Z,9.67
2023-04-02T00:08:43.483Z,9.84
2023-04-02T00:11:48.925Z,9.63
2023-04-02T00:14:55.644Z,9.69
2023-04-02T00:18:00.043Z,9.63
2023-04-02T00:21:10.281Z,9.57
2023-04-02T00:24:21.994Z,9.56
2023-04-02T00:27:24.570Z,9.50
2023-04-02T00:30:28.211Z,9.61
2023-04-02T00:33:32.116Z,9.54
2023-04-02T00:36:35.569Z,9.49
2023-04-02T00:39:42.184Z,9.63
2023-04-02T00:42:46.931Z,9.63
2023-04-02T00:45:56.292Z,9.73
2023-04-02T00:49:10.768Z,9.66
2023-04-02T00:52:17.498Z,9.75
2023-04-02T00:55:27.417Z,9.78
2023-04-02T00:58:34.098Z,9.80
2023-04-02T01:01:37.813Z,9.79
2023-04-02T01:04:41.195Z,9.85
2023-04-02T01:08:08.206Z,9.87
2023-04-02T01:11:28.865Z,9.92
2023-04-02T01:14:56.431Z,9.91
2023-04-02T01:18:13.790Z,9.98
2023-04-02T01:21:38.084Z,9.92
2023-04-02T01:24:44.427Z,9.97
2023-04-02T01:28:07.048Z,9.89
2023-04-02T01:31:10.638Z,9.97
2023-04-02T01:34:20.509Z,10.00
2023-04-02T01:37:34.325Z,9.92
2023-04-02T01:41:04.570Z,9.99
2023-04-02T01:44:17.720Z,10.05
2023-04-02T01:47:25.623Z,9.93
2023-04-02T01:50:37.394Z,9.95
2023-04-02T01:53:40.579Z,9.89
2023-04-02T01:56:44.875Z,10.00
2023-04-02T01:59:48.211Z,9.91
2023-04-02T02:02:52.189Z,9.96
2023-04-02T02:05:56.766Z,9.91
2023-04-02T02:09:04.557Z,9.99
2023-04-02T02:12:13.217Z,9.95
2023-04-02T02:15:18.539Z,9.92
2023-04-02T02:18:25.928Z,10.04
2023-04-02T02:21:49.624Z,10.04
2023-04-02T02:25:06.649Z,10.10
2023-04-02T02:28:26.027Z,10.07
2023-04-02T02:31:34.423Z,10.01
2023-04-02T02:34:43.590Z,10.05
2023-04-02T02:37:54.887Z,10.06
2023-04-02T02:41:05.046Z,9.95
2023-04-02T02:44:08.751Z,9.99
2023-04-02T02:47:17.061Z,10.02
2023-04-02T02:50:24.497Z,10.03
2023-04-02T02:53:27.794Z,10.06
2023-04-02T02:56:34.863Z,10.07
2023-04-02T02:59:38.389Z,9.89
2023-04-02T03:02:43.446Z,9.87
2023-04-02T03:05:52.739Z,9.98
2023-04-02T03:09:13.541Z,9.96
2023-04-02T03:12:38.698Z,9.95
2023-04-02T03:16:00.356Z,9.84
2023-04-02T03:19:11.779Z,9.99
2023-04-02T03:22:23.564Z,9.98
2023-04-02T03:25:37.147Z,9.94
2023-04-02T03:28:46.792Z,9.97
2023-04-02T03:32:00.681Z,9.85
2023-04-02T03:35:20.560Z,9.91
2023-04-02T03:38:35.770Z,9.79
2023-04-02T03:41:48.092Z,9.87
2023-04-02T03:45:19.434Z,9.83
2023-04-02T03:48:34.082Z,9.82
2023-04-02T03:51:51.935Z,9.91
2023-04-02T03:55:01.223Z,9.80
2023-04-02T03:58:22.186Z,9.71
2023-04-02T04:01:53.494Z,9.80
2023-04-02T04:04:57.868Z,9.71
2023-04-02T04:08:05.601Z,9.66
2023-04-02T04:11:17.625Z,9.55
2023-04-02T04:14:32.956Z,9.51
2023-04-02T04:17:56.886Z,9.48
2023-04-02T04:21:12.266Z,9.25
2023-04-02T04:24:27.291Z,9.21
2023-04-02T04:27:53.897Z,9.16
2023-04-02T04:31:01.481Z,9.12
2023-04-02T04:34:11.615Z,9.17
2023-04-02T04:37:21.711Z,9.13
2023-04-02T04:40:42.356Z,9.04
2023-04-02T04:43:52.299Z,9.23
2023-04-02T04:47:06.402Z,9.35
2023-04-02T04:50:31.248Z,9.41
2023-04-02T04:53:38.214Z,9.69
2023-04-02T04:56:46.863Z,9.57
2023-04-02T04:59:58.723Z,10.04
2023-04-02T05:03:30.460Z,10.78
2023-04-02T05:06:52.192Z,11.59
2023-04-02T05:10:01.557Z,11.57
2023-04-02T05:13:35.491Z,12.01
2023-04-02T05:16:46.303Z,12.55
2023-04-02T05:20:16.332Z,12.86
2023-04-02T05:23:30.517Z,12.84
2023-04-02T05:26:45.895Z,13.25
2023-04-02T05:30:00.201Z,13.86
2023-04-02T05:33:21.146Z,14.01
2023-04-02T05:36:32.539Z,14.23
2023-04-02T05:39:35.596Z,14.27
2023-04-02T05:42:43.521Z,14.39
2023-04-02T05:45:54.342Z,14.57
2023-04-02T05:49:00.300Z,14.98
2023-04-02T05:52:06.973Z,15.18
2023-04-02T05:55:13.350Z,15.26
2023-04-02T06:01:45.422Z,16.32
2023-04-02T06:05:04.366Z,16.51
2023-04-02T06:08:22.781Z,17.05
2023-04-02T06:11:35.443Z,17.06
2023-04-02T06:14:38.489Z,16.91
2023-04-02T06:17:51.218Z,17.28
2023-04-02T06:20:55.446Z,17.11
2023-04-02T06:24:03.460Z,17.56
2023-04-02T06:27:11.969Z,17.77
2023-04-02T06:30:32.992Z,18.87
2023-04-02T06:33:36.542Z,18.83
2023-04-02T06:36:40.402Z,19.73
2023-04-02T06:39:43.870Z,19.01
2023-04-02T06:42:59.579Z,18.26
2023-04-02T06:46:18.330Z,18.26
2023-04-02T06:53:00.363Z,19.23
2023-04-02T06:56:22.273Z,19.42
2023-04-02T07:03:30.820Z,19.93
2023-04-02T07:06:42.756Z,19.75
2023-04-02T07:09:46.780Z,19.78
2023-04-02T07:12:51.100Z,20.60
2023-04-02T07:15:56.287Z,20.17
2023-04-02T07:19:00.929Z,19.86
2023-04-02T07:22:07.384Z,19.96
2023-04-02T07:25:14.351Z,20.30
2023-04-02T07:28:22.765Z,20.89
2023-04-02T07:32:17.074Z,20.56
2023-04-02T07:35:20.801Z,20.72
2023-04-02T07:47:28.082Z,18.10
2023-04-02T07:50:32.094Z,18.74
2023-04-02T07:53:44.709Z,18.17
2023-04-02T07:56:55.174Z,18.42
2023-04-02T08:00:31.072Z,18.09
2023-04-02T08:03:35.781Z,18.12
2023-04-02T08:06:39.696Z,18.18
2023-04-02T08:09:50.216Z,18.80
2023-04-02T08:12:56.059Z,19.32
2023-04-02T08:16:16.912Z,18.23
2023-04-02T08:19:28.314Z,18.23
2023-04-02T08:22:49.580Z,19.02
2023-04-02T08:26:03.337Z,18.43
2023-04-02T08:29:13.333Z,17.84
2023-04-02T08:32:17.306Z,18.12
2023-04-02T08:35:59.722Z,18.40
2023-04-02T08:43:13.380Z,17.96
2023-04-02T08:46:41.335Z,18.14
2023-04-02T08:49:52.927Z,18.35
2023-04-02T08:53:01.032Z,18.39
2023-04-02T08:56:22.443Z,17.90
2023-04-02T08:59:34.957Z,18.49
2023-04-02T09:02:41.610Z,20.08
2023-04-02T09:05:46.544Z,19.55
2023-04-02T09:08:52.526Z,18.88
2023-04-02T09:12:04.081Z,18.88
2023-04-02T09:15:22.736Z,20.00
2023-04-02T09:18:28.608Z,20.54
2023-04-02T09:21:37.680Z,21.23
2023-04-02T09:24:40.591Z,20.11
2023-04-02T09:27:52.298Z,21.12
2023-04-02T09:31:20.402Z,20.55
2023-04-02T09:34:29.679Z,20.23
2023-04-02T09:37:39.216Z,19.55
2023-04-02T09:40:56.302Z,19.81
2023-04-02T09:44:31.262Z,19.21
2023-04-02T09:47:34.392Z,18.03
2023-04-02T09:50:37.718Z,18.12
2023-04-02T09:53:46.742Z,18.85
2023-04-02T09:57:04.022Z,18.32
2023-04-02T10:00:29.745Z,18.58
2023-04-02T10:03:35.649Z,18.83
2023-04-02T10:07:01.549Z,18.68
2023-04-02T10:10:30.767Z,18.67
2023-04-02T10:13:52.944Z,18.45
2023-04-02T10:16:59.693Z,18.19
2023-04-02T10:20:22.404Z,17.84
2023-04-02T10:23:29.835Z,18.13
2023-04-02T10:26:52.504Z,18.48
2023-04-02T10:30:13.889Z,19.75
2023-04-02T10:33:33.228Z,20.00
2023-04-02T10:36:51.487Z,21.77
2023-04-02T10:40:02.005Z,21.56
2023-04-02T10:43:39.819Z,20.92
2023-04-02T10:47:13.843Z,21.47
2023-04-02T10:50:44.717Z,20.38
2023-04-02T10:53:53.441Z,20.35
2023-04-02T10:57:06.824Z,20.22
2023-04-02T11:00:18.834Z,20.01
2023-04-02T11:03:45.695Z,19.98
2023-04-02T11:07:13.327Z,19.05
2023-04-02T11:10:20.908Z,19.26
2023-04-02T11:13:43.230Z,18.92
2023-04-02T11:16:49.278Z,19.97
2023-04-02T11:19:52.833Z,20.10
2023-04-02T11:23:11.308Z,20.20
2023-04-02T11:26:29.182Z,20.39
2023-04-02T11:29:34.813Z,20.55
2023-04-02T11:32:45.255Z,20.72
2023-04-02T11:35:48.367Z,20.98
2023-04-02T11:38:52.940Z,20.68
2023-04-02T11:42:21.213Z,21.13
2023-04-02T11:45:26.735Z,21.57
2023-04-02T11:48:36.194Z,21.28
2023-04-02T11:51:39.096Z,19.05
2023-04-02T11:54:42.815Z,19.17
2023-04-02T11:58:04.758Z,20.09
2023-04-02T12:01:33.994Z,21.32
2023-04-02T12:05:04.568Z,20.49
2023-04-02T12:08:57.935Z,21.04
2023-04-02T12:12:26.231Z,20.76
2023-04-02T12:15:43.600Z,19.09
2023-04-02T12:18:54.088Z,20.19
2023-04-02T12:21:59.323Z,21.47
2023-04-02T12:25:22.189Z,21.25
2023-04-02T12:28:28.977Z,19.73
2023-04-02T12:31:33.724Z,19.68
2023-04-02T12:34:36.920Z,19.85
2023-04-02T12:37:40.013Z,19.73
2023-04-02T12:41:00.771Z,19.61
2023-04-02T12:44:16.520Z,20.23
2023-04-02T12:47:19.220Z,18.98
2023-04-02T12:50:22.928Z,19.40
2023-04-02T12:53:36.651Z,18.96
2023-04-02T12:56:40.087Z,19.06
2023-04-02T12:59:43.826Z,19.04
2023-04-02T13:02:58.582Z,18.91
2023-04-02T13:06:01.533Z,18.30
2023-04-02T13:09:36.333Z,18.65
2023-04-02T13:12:41.278Z,19.17
2023-04-02T13:15:44.586Z,18.66
2023-04-02T13:18:49.304Z,18.84
2023-04-02T13:21:53.271Z,18.54
2023-04-02T13:24:58.212Z,18.34
2023-04-02T13:28:02.044Z,18.22
2023-04-02T13:31:04.847Z,17.10
2023-04-02T13:34:07.898Z,17.02
2023-04-02T13:37:14.000Z,17.57
2023-04-02T13:40:19.418Z,17.96
2023-04-02T13:43:34.719Z,18.53
2023-04-02T13:46:41.341Z,18.30
2023-04-02T13:49:44.518Z,18.92
2023-04-02T13:52:50.648Z,18.44
2023-04-02T13:55:54.026Z,18.16
2023-04-02T13:58:57.069Z,17.51
2023-04-02T14:02:07.618Z,17.22
2023-04-02T14:05:24.033Z,17.42
2023-04-02T14:08:51.661Z,17.42
2023-04-02T14:12:14.007Z,17.42
2023-04-02T14:15:33.199Z,17.34
2023-04-02T14:18:38.032Z,17.36
2023-04-02T14:22:06.527Z,17.62
2023-04-02T14:25:34.204Z,17.88
2023-04-02T14:28:49.450Z,18.16
2023-04-02T14:31:55.481Z,17.87
2023-04-02T14:35:13.370Z,17.91
2023-04-02T14:38:34.150Z,18.05
2023-04-02T14:41:56.981Z,18.11
2023-04-02T14:45:17.076Z,17.84
2023-04-02T14:48:24.724Z,18.20
2023-04-02T14:51:37.496Z,18.16
2023-04-02T14:55:03.331Z,17.66
2023-04-02T14:58:16.420Z,17.61
2023-04-02T15:01:27.896Z,17.17
2023-04-02T15:04:46.210Z,17.01
2023-04-02T15:08:24.671Z,16.77
2023-04-02T15:11:35.137Z,16.72
2023-04-02T15:14:45.916Z,16.39
2023-04-02T15:17:49.103Z,16.11
2023-04-02T15:21:09.251Z,15.85
2023-04-02T15:24:47.744Z,15.64
2023-04-02T15:28:09.741Z,15.54
2023-04-02T15:31:14.718Z,15.21
2023-04-02T15:34:22.351Z,15.12
2023-04-02T15:37:45.308Z,15.01
2023-04-02T15:40:51.694Z,15.09
2023-04-02T15:44:04.504Z,14.87
2023-04-02T15:47:33.947Z,14.29
2023-04-02T15:50:51.410Z,13.75
2023-04-02T15:54:12.156Z,13.68
2023-04-02T15:57:21.045Z,13.71
2023-04-02T16:00:52.608Z,13.78
2023-04-02T16:04:21.079Z,13.74
2023-04-02T16:07:40.242Z,13.34
2023-04-02T16:10:45.778Z,13.15
2023-04-02T16:13:49.358Z,12.69
2023-04-02T16:16:59.911Z,12.78
2023-04-02T16:20:22.039Z,12.47
2023-04-02T16:23:45.660Z,12.53
2023-04-02T16:27:08.951Z,12.68
2023-04-02T16:30:49.772Z,12.64
2023-04-02T16:34:06.264Z,12.75
2023-04-02T16:37:31.330Z,13.16
2023-04-02T16:41:07.900Z,13.49
2023-04-02T16:44:28.854Z,13.28
2023-04-02T16:48:08.160Z,12.98
2023-04-02T16:51:47.444Z,12.67
2023-04-02T16:55:43.427Z,12.35
2023-04-02T16:59:49.011Z,12.22
2023-04-02T17:03:24.352Z,12.41
2023-04-02T17:06:49.081Z,12.60
2023-04-02T17:09:54.331Z,12.42
2023-04-02T17:13:18.734Z,12.33
2023-04-02T17:16:32.381Z,12.08
2023-04-02T17:19:36.495Z,12.00
2023-04-02T17:22:40.819Z,12.02
2023-04-02T17:25:58.169Z,11.96
2023-04-02T17:29:08.427Z,11.88
2023-04-02T17:32:24.866Z,11.83
2023-04-02T17:35:36.135Z,11.81
2023-04-02T17:39:04.592Z,11.69
2023-04-02T17:42:21.336Z,11.66
2023-04-02T17:45:34.956Z,11.74
2023-04-02T17:48:51.640Z,11.73
2023-04-02T17:52:06.866Z,11.89
2023-04-02T17:55:46.374Z,11.89
2023-04-02T17:59:03.411Z,11.93
2023-04-02T18:02:19.635Z,11.98
2023-04-02T18:05:43.862Z,11.76
2023-04-02T18:13:07.788Z,11.67
2023-04-02T18:16:42.800Z,11.60
2023-04-02T18:20:01.273Z,11.53
2023-04-02T18:23:20.652Z,11.21
2023-04-02T18:26:44.700Z,11.01
2023-04-02T18:30:09.489Z,11.04
2023-04-02T18:33:13.919Z,10.78
2023-04-02T18:36:28.900Z,10.82
2023-04-02T18:40:09.729Z,10.76
2023-04-02T18:43:35.013Z,10.66
2023-04-02T18:46:46.781Z,10.78
2023-04-02T18:50:05.739Z,10.84
2023-04-02T18:53:23.075Z,10.75
2023-04-02T18:56:32.347Z,10.88
2023-04-02T18:59:55.778Z,10.84
2023-04-02T19:03:30.293Z,10.78
2023-04-02T19:06:52.611Z,10.55
2023-04-02T19:10:02.973Z,10.56
2023-04-02T19:13:17.968Z,10.51
2023-04-02T19:16:27.432Z,10.37
2023-04-02T19:19:46.813Z,10.15
2023-04-02T19:23:11.586Z,10.14
2023-04-02T19:26:25.057Z,9.95
2023-04-02T19:29:53.162Z,9.57
2023-04-02T19:33:11.020Z,9.75
2023-04-02T19:36:41.383Z,9.60
2023-04-02T19:40:04.880Z,9.89
2023-04-02T19:43:10.752Z,9.71
2023-04-02T19:46:14.771Z,9.39
2023-04-02T19:49:39.737Z,9.25
2023-04-02T19:52:43.056Z,9.24
2023-04-02T19:55:47.822Z,9.40
2023-04-02T19:58:51.549Z,9.51
2023-04-02T20:01:55.032Z,9.27
2023-04-02T20:04:58.175Z,9.27
2023-04-02T20:08:01.006Z,9.39
2023-04-02T20:11:05.432Z,9.18
2023-04-02T20:14:10.007Z,9.26
2023-04-02T20:17:13.355Z,9.21
2023-04-02T20:20:16.993Z,9.37
2023-04-02T20:23:20.981Z,9.16
2023-04-02T20:26:23.761Z,9.24
2023-04-02T20:29:29.497Z,9.03
2023-04-02T20:32:36.553Z,9.40
2023-04-02T20:35:41.583Z,9.54
2023-04-02T20:38:45.809Z,9.31
2023-04-02T20:41:49.011Z,9.37
2023-04-02T20:44:51.915Z,9.37
2023-04-02T20:47:55.388Z,9.39
2023-04-02T20:51:00.095Z,9.32
2023-04-02T20:54:18.201Z,9.42
2023-04-02T20:57:22.139Z,9.08
2023-04-02T21:00:25.478Z,9.18
2023-04-02T21:03:28.101Z,9.16
2023-04-02T21:06:33.652Z,8.99
2023-04-02T21:09:36.193Z,9.15
2023-04-02T21:12:39.058Z,9.19
2023-04-02T21:15:44.390Z,9.33
2023-04-02T21:18:49.316Z,9.42
2023-04-02T21:21:55.175Z,9.35
2023-04-02T21:24:57.954Z,8.82
2023-04-02T21:28:00.793Z,9.02
2023-04-02T21:31:10.952Z,9.17
2023-04-02T21:34:15.754Z,9.24
2023-04-02T21:37:18.680Z,9.08
2023-04-02T21:40:21.794Z,9.07
2023-04-02T21:43:24.585Z,9.20
2023-04-02T21:46:31.248Z,9.12
2023-04-02T21:49:34.278Z,9.10
2023-04-02T21:52:37.070Z,9.16
2023-04-02T21:55:39.963Z,9.11
2023-04-02T21:58:44.197Z,9.42
2023-04-02T22:01:49.382Z,9.39
2023-04-02T22:04:52.358Z,9.30
2023-04-02T22:07:54.984Z,9.38
2023-04-02T22:10:57.785Z,8.99
2023-04-02T22:14:01.985Z,9.25
2023-04-02T22:17:07.444Z,9.04
2023-04-02T22:20:10.801Z,8.89
2023-04-02T22:23:13.684Z,8.91
2023-04-02T22:26:18.527Z,8.82
2023-04-02T22:29:21.840Z,8.63
2023-04-02T22:32:25.712Z,8.80
2023-04-02T22:35:30.727Z,8.62
2023-04-02T22:38:34.681Z,8.63
2023-04-02T22:41:38.393Z,8.51
2023-04-02T22:44:41.346Z,8.49
2023-04-02T22:47:44.483Z,8.59
2023-04-02T22:50:50.860Z,8.50
2023-04-02T22:53:54.769Z,8.62
2023-04-02T22:57:00.119Z,8.66
2023-04-02T23:00:06.531Z,8.67
2023-04-02T23:03:11.790Z,8.76
2023-04-02T23:06:17.156Z,8.75
2023-04-02T23:09:20.290Z,8.85
2023-04-02T23:12:23.690Z,8.69
2023-04-02T23:15:26.332Z,8.68
2023-04-02T23:18:31.762Z,8.33
2023-04-02T23:21:34.659Z,8.17
2023-04-02T23:24:37.481Z,8.14
2023-04-02T23:27:40.217Z,8.13
2023-04-02T23:30:44.104Z,8.13
2023-04-02T23:33:46.891Z,8.06
2023-04-02T23:36:49.719Z,7.92
2023-04-02T23:39:52.340Z,7.97
2023-04-02T23:42:55.186Z,7.96
2023-04-02T23:45:57.858Z,8.08
2023-04-02T23:49:01.586Z,8.06
2023-04-02T23:52:04.281Z,8.02
2023-04-02T23:55:07.530Z,7.97
2023-04-02T23:58:10.110Z,8.07
